sensor_id;sensor_type;location;lat;lon;timestamp;P1;durP1;ratioP1;P2;durP2;ratioP2
4915;SDS011;70796;52.406;13.230;2023-07-24T00:02:17;5.07;;;3.50;;
4915;SDS011;70796;52.406;13.230;2023-07-24T00:04:44;5.23;;;3.30;;
4915;SDS011;70796;52.406;13.230;2023-07-24T00:07:10;6.97;;;2.90;;
4915;SDS011;70796;52.406;13.230;2023-07-24T00:09:37;3.40;;;3.10;;
4915;SDS011;70796;52.406;13.230;2023-07-24T00:12:03;5.70;;;3.53;;
4915;SDS011;70796;52.406;13.230;2023-07-24T00:14:30;7.23;;;3.20;;
4915;SDS011;70796;52.406;13.230;2023-07-24T00:16:56;4.33;;;3.63;;
4915;SDS011;70796;52.406;13.230;2023-07-24T00:19:22;5.37;;;2.93;;
4915;SDS011;70796;52.406;13.230;2023-07-24T00:21:49;5.03;;;3.33;;
4915;SDS011;70796;52.406;13.230;2023-07-24T00:24:15;6.20;;;3.00;;
4915;SDS011;70796;52.406;13.230;2023-07-24T00:26:42;4.67;;;3.33;;
4915;SDS011;70796;52.406;13.230;2023-07-24T00:29:09;5.37;;;3.77;;
4915;SDS011;70796;52.406;13.230;2023-07-24T00:31:38;3.43;;;2.77;;
4915;SDS011;70796;52.406;13.230;2023-07-24T00:34:04;5.47;;;3.30;;
4915;SDS011;70796;52.406;13.230;2023-07-24T00:36:31;3.63;;;3.33;;
4915;SDS011;70796;52.406;13.230;2023-07-24T00:38:58;7.77;;;4.40;;
4915;SDS011;70796;52.406;13.230;2023-07-24T00:41:24;4.50;;;3.10;;
4915;SDS011;70796;52.406;13.230;2023-07-24T00:43:52;3.70;;;3.20;;
4915;SDS011;70796;52.406;13.230;2023-07-24T00:46:20;4.63;;;3.10;;
4915;SDS011;70796;52.406;13.230;2023-07-24T00:48:47;5.17;;;3.80;;
4915;SDS011;70796;52.406;13.230;2023-07-24T00:51:14;3.63;;;3.00;;
4915;SDS011;70796;52.406;13.230;2023-07-24T00:53:40;3.70;;;3.03;;
4915;SDS011;70796;52.406;13.230;2023-07-24T00:56:06;4.40;;;3.70;;
4915;SDS011;70796;52.406;13.230;2023-07-24T00:58:33;4.07;;;3.63;;
4915;SDS011;70796;52.406;13.230;2023-07-24T01:00:59;5.87;;;3.67;;
4915;SDS011;70796;52.406;13.230;2023-07-24T01:03:29;5.00;;;3.43;;
4915;SDS011;70796;52.406;13.230;2023-07-24T01:05:57;5.40;;;4.03;;
4915;SDS011;70796;52.406;13.230;2023-07-24T01:08:23;5.73;;;4.40;;
4915;SDS011;70796;52.406;13.230;2023-07-24T01:10:50;5.70;;;3.23;;
4915;SDS011;70796;52.406;13.230;2023-07-24T01:13:18;9.77;;;3.50;;
4915;SDS011;70796;52.406;13.230;2023-07-24T01:15:48;3.83;;;3.33;;
4915;SDS011;70796;52.406;13.230;2023-07-24T01:18:16;5.40;;;3.53;;
4915;SDS011;70796;52.406;13.230;2023-07-24T01:20:46;7.30;;;4.03;;
4915;SDS011;70796;52.406;13.230;2023-07-24T01:25:48;4.50;;;3.23;;
4915;SDS011;70796;52.406;13.230;2023-07-24T01:28:16;4.70;;;3.20;;
4915;SDS011;70796;52.406;13.230;2023-07-24T01:30:42;3.53;;;2.50;;
4915;SDS011;70796;52.406;13.230;2023-07-24T01:33:09;13.30;;;3.50;;
4915;SDS011;70796;52.406;13.230;2023-07-24T01:35:36;4.07;;;3.27;;
4915;SDS011;70796;52.406;13.230;2023-07-24T01:38:04;6.63;;;3.27;;
4915;SDS011;70796;52.406;13.230;2023-07-24T01:40:30;3.90;;;3.40;;
4915;SDS011;70796;52.406;13.230;2023-07-24T01:42:57;4.87;;;3.40;;
4915;SDS011;70796;52.406;13.230;2023-07-24T01:45:25;4.30;;;3.40;;
4915;SDS011;70796;52.406;13.230;2023-07-24T01:47:52;4.77;;;3.53;;
4915;SDS011;70796;52.406;13.230;2023-07-24T01:50:18;4.00;;;3.43;;
4915;SDS011;70796;52.406;13.230;2023-07-24T01:52:45;5.83;;;3.33;;
4915;SDS011;70796;52.406;13.230;2023-07-24T01:55:11;3.97;;;3.50;;
4915;SDS011;70796;52.406;13.230;2023-07-24T01:57:38;4.20;;;3.20;;
4915;SDS011;70796;52.406;13.230;2023-07-24T02:00:04;4.80;;;3.70;;
4915;SDS011;70796;52.406;13.230;2023-07-24T02:02:32;4.30;;;3.13;;
4915;SDS011;70796;52.406;13.230;2023-07-24T02:04:58;4.67;;;3.30;;
4915;SDS011;70796;52.406;13.230;2023-07-24T02:07:25;4.00;;;3.30;;
4915;SDS011;70796;52.406;13.230;2023-07-24T02:09:51;3.93;;;3.30;;
4915;SDS011;70796;52.406;13.230;2023-07-24T02:12:18;4.50;;;3.33;;
4915;SDS011;70796;52.406;13.230;2023-07-24T02:14:44;4.00;;;3.27;;
4915;SDS011;70796;52.406;13.230;2023-07-24T02:17:10;7.13;;;3.50;;
4915;SDS011;70796;52.406;13.230;2023-07-24T02:19:37;4.27;;;3.03;;
4915;SDS011;70796;52.406;13.230;2023-07-24T02:22:04;4.20;;;3.03;;
4915;SDS011;70796;52.406;13.230;2023-07-24T02:24:33;3.33;;;3.00;;
4915;SDS011;70796;52.406;13.230;2023-07-24T02:27:00;3.57;;;2.93;;
4915;SDS011;70796;52.406;13.230;2023-07-24T02:29:31;4.47;;;3.20;;
4915;SDS011;70796;52.406;13.230;2023-07-24T02:31:57;8.13;;;2.80;;
4915;SDS011;70796;52.406;13.230;2023-07-24T02:34:25;6.07;;;3.13;;
4915;SDS011;70796;52.406;13.230;2023-07-24T02:36:53;4.53;;;3.07;;
4915;SDS011;70796;52.406;13.230;2023-07-24T02:39:20;3.23;;;2.93;;
4915;SDS011;70796;52.406;13.230;2023-07-24T02:41:49;4.93;;;3.07;;
4915;SDS011;70796;52.406;13.230;2023-07-24T02:44:16;4.03;;;3.30;;
4915;SDS011;70796;52.406;13.230;2023-07-24T02:46:42;6.10;;;3.00;;
4915;SDS011;70796;52.406;13.230;2023-07-24T02:49:09;4.37;;;3.27;;
4915;SDS011;70796;52.406;13.230;2023-07-24T02:51:35;4.40;;;3.63;;
4915;SDS011;70796;52.406;13.230;2023-07-24T02:54:01;4.43;;;3.13;;
4915;SDS011;70796;52.406;13.230;2023-07-24T02:56:28;6.50;;;2.90;;
4915;SDS011;70796;52.406;13.230;2023-07-24T02:58:55;7.93;;;2.60;;
4915;SDS011;70796;52.406;13.230;2023-07-24T03:01:21;3.67;;;2.80;;
4915;SDS011;70796;52.406;13.230;2023-07-24T03:03:48;3.40;;;3.07;;
4915;SDS011;70796;52.406;13.230;2023-07-24T03:06:15;3.50;;;2.87;;
4915;SDS011;70796;52.406;13.230;2023-07-24T03:08:41;3.60;;;2.60;;
4915;SDS011;70796;52.406;13.230;2023-07-24T03:11:07;2.80;;;2.50;;
4915;SDS011;70796;52.406;13.230;2023-07-24T03:13:35;4.13;;;2.63;;
4915;SDS011;70796;52.406;13.230;2023-07-24T03:16:01;12.90;;;3.13;;
4915;SDS011;70796;52.406;13.230;2023-07-24T03:18:29;9.13;;;2.77;;
4915;SDS011;70796;52.406;13.230;2023-07-24T03:20:57;11.53;;;2.57;;
4915;SDS011;70796;52.406;13.230;2023-07-24T03:23:23;3.30;;;2.80;;
4915;SDS011;70796;52.406;13.230;2023-07-24T03:25:50;3.70;;;2.87;;
4915;SDS011;70796;52.406;13.230;2023-07-24T03:28:16;2.80;;;2.20;;
4915;SDS011;70796;52.406;13.230;2023-07-24T03:30:44;3.70;;;2.50;;
4915;SDS011;70796;52.406;13.230;2023-07-24T03:33:11;2.50;;;2.30;;
4915;SDS011;70796;52.406;13.230;2023-07-24T03:35:38;4.63;;;2.67;;
4915;SDS011;70796;52.406;13.230;2023-07-24T03:38:05;6.00;;;2.90;;
4915;SDS011;70796;52.406;13.230;2023-07-24T03:40:31;2.50;;;2.30;;
4915;SDS011;70796;52.406;13.230;2023-07-24T03:42:58;3.00;;;2.30;;
4915;SDS011;70796;52.406;13.230;2023-07-24T03:45:24;6.87;;;2.60;;
4915;SDS011;70796;52.406;13.230;2023-07-24T03:47:50;5.77;;;2.33;;
4915;SDS011;70796;52.406;13.230;2023-07-24T03:50:17;2.20;;;2.00;;
4915;SDS011;70796;52.406;13.230;2023-07-24T03:52:43;4.30;;;2.33;;
4915;SDS011;70796;52.406;13.230;2023-07-24T03:55:10;3.03;;;2.30;;
4915;SDS011;70796;52.406;13.230;2023-07-24T03:57:36;2.27;;;2.07;;
4915;SDS011;70796;52.406;13.230;2023-07-24T04:00:03;3.20;;;2.20;;
4915;SDS011;70796;52.406;13.230;2023-07-24T04:02:37;2.00;;;1.80;;
4915;SDS011;70796;52.406;13.230;2023-07-24T04:05:04;2.47;;;2.27;;
4915;SDS011;70796;52.406;13.230;2023-07-24T04:07:30;4.50;;;2.30;;
4915;SDS011;70796;52.406;13.230;2023-07-24T04:09:57;2.90;;;2.60;;
4915;SDS011;70796;52.406;13.230;2023-07-24T04:12:23;2.57;;;1.97;;
4915;SDS011;70796;52.406;13.230;2023-07-24T04:14:49;2.00;;;1.80;;
4915;SDS011;70796;52.406;13.230;2023-07-24T04:17:16;2.60;;;2.03;;
4915;SDS011;70796;52.406;13.230;2023-07-24T04:19:43;1.77;;;1.67;;
4915;SDS011;70796;52.406;13.230;2023-07-24T04:22:09;2.10;;;1.70;;
4915;SDS011;70796;52.406;13.230;2023-07-24T04:24:35;2.37;;;1.80;;
4915;SDS011;70796;52.406;13.230;2023-07-24T04:27:02;14.53;;;1.70;;
4915;SDS011;70796;52.406;13.230;2023-07-24T04:29:28;2.87;;;1.77;;
4915;SDS011;70796;52.406;13.230;2023-07-24T04:31:54;2.73;;;2.13;;
4915;SDS011;70796;52.406;13.230;2023-07-24T04:34:21;2.27;;;1.97;;
4915;SDS011;70796;52.406;13.230;2023-07-24T04:36:47;1.97;;;1.60;;
4915;SDS011;70796;52.406;13.230;2023-07-24T04:39:13;4.17;;;1.73;;
4915;SDS011;70796;52.406;13.230;2023-07-24T04:41:40;2.13;;;1.57;;
4915;SDS011;70796;52.406;13.230;2023-07-24T04:44:06;1.70;;;1.60;;
4915;SDS011;70796;52.406;13.230;2023-07-24T04:46:33;1.47;;;1.37;;
4915;SDS011;70796;52.406;13.230;2023-07-24T04:49:00;2.20;;;1.50;;
4915;SDS011;70796;52.406;13.230;2023-07-24T04:51:26;1.80;;;1.47;;
4915;SDS011;70796;52.406;13.230;2023-07-24T04:53:53;1.47;;;1.30;;
4915;SDS011;70796;52.406;13.230;2023-07-24T04:56:19;1.60;;;1.50;;
4915;SDS011;70796;52.406;13.230;2023-07-24T04:58:46;1.73;;;1.60;;
4915;SDS011;70796;52.406;13.230;2023-07-24T05:01:12;3.30;;;1.70;;
4915;SDS011;70796;52.406;13.230;2023-07-24T05:03:38;1.83;;;1.60;;
4915;SDS011;70796;52.406;13.230;2023-07-24T05:06:05;1.53;;;1.43;;
4915;SDS011;70796;52.406;13.230;2023-07-24T05:08:31;1.80;;;1.50;;
4915;SDS011;70796;52.406;13.230;2023-07-24T05:10:59;3.73;;;1.70;;
4915;SDS011;70796;52.406;13.230;2023-07-24T05:13:26;2.73;;;1.50;;
4915;SDS011;70796;52.406;13.230;2023-07-24T05:18:30;2.33;;;1.20;;
4915;SDS011;70796;52.406;13.230;2023-07-24T05:20:59;3.53;;;1.77;;
4915;SDS011;70796;52.406;13.230;2023-07-24T05:23:26;1.90;;;1.50;;
4915;SDS011;70796;52.406;13.230;2023-07-24T05:25:56;3.67;;;2.00;;
4915;SDS011;70796;52.406;13.230;2023-07-24T05:28:23;3.43;;;2.03;;
4915;SDS011;70796;52.406;13.230;2023-07-24T05:30:49;1.50;;;1.40;;
4915;SDS011;70796;52.406;13.230;2023-07-24T05:33:15;2.03;;;1.43;;
4915;SDS011;70796;52.406;13.230;2023-07-24T05:35:42;2.67;;;1.37;;
4915;SDS011;70796;52.406;13.230;2023-07-24T05:38:09;1.57;;;1.40;;
4915;SDS011;70796;52.406;13.230;2023-07-24T05:40:35;1.50;;;1.40;;
4915;SDS011;70796;52.406;13.230;2023-07-24T05:43:02;2.90;;;1.30;;
4915;SDS011;70796;52.406;13.230;2023-07-24T05:45:30;1.77;;;1.60;;
4915;SDS011;70796;52.406;13.230;2023-07-24T05:47:56;3.90;;;1.53;;
4915;SDS011;70796;52.406;13.230;2023-07-24T05:50:22;1.50;;;1.40;;
4915;SDS011;70796;52.406;13.230;2023-07-24T05:52:49;4.93;;;2.10;;
4915;SDS011;70796;52.406;13.230;2023-07-24T05:55:15;6.80;;;2.10;;
4915;SDS011;70796;52.406;13.230;2023-07-24T05:57:42;1.73;;;1.27;;
4915;SDS011;70796;52.406;13.230;2023-07-24T06:00:08;1.53;;;1.43;;
4915;SDS011;70796;52.406;13.230;2023-07-24T06:02:37;1.77;;;1.67;;
4915;SDS011;70796;52.406;13.230;2023-07-24T06:05:04;2.03;;;1.93;;
4915;SDS011;70796;52.406;13.230;2023-07-24T06:07:30;2.90;;;1.60;;
4915;SDS011;70796;52.406;13.230;2023-07-24T06:09:57;2.10;;;1.80;;
4915;SDS011;70796;52.406;13.230;2023-07-24T06:12:23;4.90;;;2.20;;
4915;SDS011;70796;52.406;13.230;2023-07-24T06:14:49;6.27;;;2.43;;
4915;SDS011;70796;52.406;13.230;2023-07-24T06:17:16;6.93;;;2.40;;
4915;SDS011;70796;52.406;13.230;2023-07-24T06:19:42;2.80;;;2.37;;
4915;SDS011;70796;52.406;13.230;2023-07-24T06:22:09;9.83;;;2.40;;
4915;SDS011;70796;52.406;13.230;2023-07-24T06:24:35;1.93;;;1.83;;
4915;SDS011;70796;52.406;13.230;2023-07-24T06:27:02;2.63;;;2.43;;
4915;SDS011;70796;52.406;13.230;2023-07-24T06:29:29;6.40;;;2.30;;
4915;SDS011;70796;52.406;13.230;2023-07-24T06:31:55;6.07;;;2.73;;
4915;SDS011;70796;52.406;13.230;2023-07-24T06:34:22;2.73;;;2.50;;
4915;SDS011;70796;52.406;13.230;2023-07-24T06:36:48;9.00;;;2.40;;
4915;SDS011;70796;52.406;13.230;2023-07-24T06:39:15;2.60;;;2.40;;
4915;SDS011;70796;52.406;13.230;2023-07-24T06:41:41;2.60;;;2.37;;
4915;SDS011;70796;52.406;13.230;2023-07-24T06:44:08;3.13;;;2.80;;
4915;SDS011;70796;52.406;13.230;2023-07-24T06:46:34;2.20;;;2.00;;
4915;SDS011;70796;52.406;13.230;2023-07-24T06:49:01;2.50;;;2.30;;
4915;SDS011;70796;52.406;13.230;2023-07-24T06:51:27;6.13;;;2.80;;
4915;SDS011;70796;52.406;13.230;2023-07-24T06:53:54;2.60;;;2.40;;
4915;SDS011;70796;52.406;13.230;2023-07-24T06:56:21;4.20;;;2.73;;
4915;SDS011;70796;52.406;13.230;2023-07-24T06:58:47;2.53;;;2.33;;
4915;SDS011;70796;52.406;13.230;2023-07-24T07:01:14;2.40;;;2.20;;
4915;SDS011;70796;52.406;13.230;2023-07-24T07:03:40;3.40;;;2.93;;
4915;SDS011;70796;52.406;13.230;2023-07-24T07:06:08;3.23;;;2.93;;
4915;SDS011;70796;52.406;13.230;2023-07-24T07:08:53;4.30;;;2.73;;
4915;SDS011;70796;52.406;13.230;2023-07-24T07:11:19;2.90;;;2.60;;
4915;SDS011;70796;52.406;13.230;2023-07-24T07:13:46;6.30;;;2.47;;
4915;SDS011;70796;52.406;13.230;2023-07-24T07:16:12;4.37;;;2.53;;
4915;SDS011;70796;52.406;13.230;2023-07-24T07:18:39;2.50;;;2.30;;
4915;SDS011;70796;52.406;13.230;2023-07-24T07:21:05;2.40;;;2.20;;
4915;SDS011;70796;52.406;13.230;2023-07-24T07:23:32;2.37;;;2.00;;
4915;SDS011;70796;52.406;13.230;2023-07-24T07:25:58;2.50;;;2.30;;
4915;SDS011;70796;52.406;13.230;2023-07-24T07:28:25;2.73;;;2.10;;
4915;SDS011;70796;52.406;13.230;2023-07-24T07:30:51;2.27;;;2.07;;
4915;SDS011;70796;52.406;13.230;2023-07-24T07:33:17;2.30;;;2.10;;
4915;SDS011;70796;52.406;13.230;2023-07-24T07:35:43;2.50;;;2.30;;
4915;SDS011;70796;52.406;13.230;2023-07-24T07:38:11;2.10;;;2.00;;
4915;SDS011;70796;52.406;13.230;2023-07-24T07:40:37;2.50;;;2.30;;
4915;SDS011;70796;52.406;13.230;2023-07-24T07:43:05;2.17;;;1.97;;
4915;SDS011;70796;52.406;13.230;2023-07-24T07:45:31;5.80;;;3.23;;
4915;SDS011;70796;52.406;13.230;2023-07-24T07:47:57;2.37;;;2.17;;
4915;SDS011;70796;52.406;13.230;2023-07-24T07:50:24;2.50;;;2.30;;
4915;SDS011;70796;52.406;13.230;2023-07-24T07:52:51;2.70;;;2.00;;
4915;SDS011;70796;52.406;13.230;2023-07-24T07:55:18;3.43;;;1.97;;
4915;SDS011;70796;52.406;13.230;2023-07-24T07:57:45;2.20;;;2.00;;
4915;SDS011;70796;52.406;13.230;2023-07-24T08:00:12;2.10;;;2.00;;
4915;SDS011;70796;52.406;13.230;2023-07-24T08:02:39;2.20;;;2.00;;
4915;SDS011;70796;52.406;13.230;2023-07-24T08:05:10;2.23;;;2.03;;
4915;SDS011;70796;52.406;13.230;2023-07-24T08:07:46;1.83;;;1.73;;
4915;SDS011;70796;52.406;13.230;2023-07-24T08:10:12;4.20;;;2.00;;
4915;SDS011;70796;52.406;13.230;2023-07-24T08:12:42;3.50;;;1.70;;
4915;SDS011;70796;52.406;13.230;2023-07-24T08:15:09;2.40;;;2.03;;
4915;SDS011;70796;52.406;13.230;2023-07-24T08:17:35;2.20;;;2.00;;
4915;SDS011;70796;52.406;13.230;2023-07-24T08:20:02;2.37;;;2.17;;
4915;SDS011;70796;52.406;13.230;2023-07-24T08:22:28;2.03;;;1.93;;
4915;SDS011;70796;52.406;13.230;2023-07-24T08:24:55;2.10;;;1.90;;
4915;SDS011;70796;52.406;13.230;2023-07-24T08:27:22;2.13;;;1.70;;
4915;SDS011;70796;52.406;13.230;2023-07-24T08:29:51;2.10;;;1.87;;
4915;SDS011;70796;52.406;13.230;2023-07-24T08:32:19;1.73;;;1.63;;
4915;SDS011;70796;52.406;13.230;2023-07-24T08:34:48;3.93;;;1.63;;
4915;SDS011;70796;52.406;13.230;2023-07-24T08:37:16;2.50;;;1.93;;
4915;SDS011;70796;52.406;13.230;2023-07-24T08:39:45;2.13;;;2.00;;
4915;SDS011;70796;52.406;13.230;2023-07-24T08:42:14;1.80;;;1.70;;
4915;SDS011;70796;52.406;13.230;2023-07-24T08:44:50;1.67;;;1.57;;
4915;SDS011;70796;52.406;13.230;2023-07-24T08:47:22;2.20;;;1.80;;
4915;SDS011;70796;52.406;13.230;2023-07-24T08:49:51;6.33;;;1.83;;
4915;SDS011;70796;52.406;13.230;2023-07-24T08:52:19;2.00;;;1.80;;
4915;SDS011;70796;52.406;13.230;2023-07-24T08:55:02;3.17;;;2.03;;
4915;SDS011;70796;52.406;13.230;2023-07-24T08:57:35;6.40;;;2.00;;
4915;SDS011;70796;52.406;13.230;2023-07-24T09:00:03;4.70;;;1.90;;
4915;SDS011;70796;52.406;13.230;2023-07-24T09:02:33;1.83;;;1.73;;
4915;SDS011;70796;52.406;13.230;2023-07-24T09:05:03;2.40;;;1.77;;
4915;SDS011;70796;52.406;13.230;2023-07-24T09:07:32;1.90;;;1.80;;
4915;SDS011;70796;52.406;13.230;2023-07-24T09:09:59;3.00;;;2.07;;
4915;SDS011;70796;52.406;13.230;2023-07-24T09:12:26;2.70;;;2.00;;
4915;SDS011;70796;52.406;13.230;2023-07-24T09:15:05;3.33;;;1.90;;
4915;SDS011;70796;52.406;13.230;2023-07-24T09:17:33;1.93;;;1.70;;
4915;SDS011;70796;52.406;13.230;2023-07-24T09:20:00;2.50;;;2.30;;
4915;SDS011;70796;52.406;13.230;2023-07-24T09:22:27;3.03;;;2.43;;
4915;SDS011;70796;52.406;13.230;2023-07-24T09:24:55;4.27;;;1.83;;
4915;SDS011;70796;52.406;13.230;2023-07-24T09:27:26;3.83;;;2.40;;
4915;SDS011;70796;52.406;13.230;2023-07-24T09:29:53;2.47;;;2.27;;
4915;SDS011;70796;52.406;13.230;2023-07-24T09:32:23;3.37;;;2.47;;
4915;SDS011;70796;52.406;13.230;2023-07-24T09:34:50;2.50;;;2.30;;
4915;SDS011;70796;52.406;13.230;2023-07-24T09:37:29;2.80;;;2.07;;
4915;SDS011;70796;52.406;13.230;2023-07-24T09:39:56;4.07;;;2.47;;
4915;SDS011;70796;52.406;13.230;2023-07-24T09:42:31;4.50;;;2.40;;
4915;SDS011;70796;52.406;13.230;2023-07-24T09:44:58;3.10;;;2.50;;
4915;SDS011;70796;52.406;13.230;2023-07-24T09:47:25;3.30;;;2.50;;
4915;SDS011;70796;52.406;13.230;2023-07-24T09:50:11;4.73;;;2.27;;
4915;SDS011;70796;52.406;13.230;2023-07-24T09:52:39;2.97;;;1.97;;
4915;SDS011;70796;52.406;13.230;2023-07-24T09:55:11;2.60;;;2.17;;
4915;SDS011;70796;52.406;13.230;2023-07-24T09:57:41;2.60;;;2.30;;
4915;SDS011;70796;52.406;13.230;2023-07-24T10:00:07;2.37;;;2.17;;
4915;SDS011;70796;52.406;13.230;2023-07-24T10:02:35;3.00;;;2.43;;
4915;SDS011;70796;52.406;13.230;2023-07-24T10:05:02;3.67;;;2.80;;
4915;SDS011;70796;52.406;13.230;2023-07-24T10:07:29;3.07;;;2.70;;
4915;SDS011;70796;52.406;13.230;2023-07-24T10:09:55;7.10;;;2.33;;
4915;SDS011;70796;52.406;13.230;2023-07-24T10:12:22;4.57;;;3.17;;
4915;SDS011;70796;52.406;13.230;2023-07-24T10:14:49;3.43;;;2.50;;
4915;SDS011;70796;52.406;13.230;2023-07-24T10:17:24;3.57;;;3.00;;
4915;SDS011;70796;52.406;13.230;2023-07-24T10:19:50;4.97;;;3.30;;
4915;SDS011;70796;52.406;13.230;2023-07-24T10:22:20;6.70;;;3.73;;
4915;SDS011;70796;52.406;13.230;2023-07-24T10:24:47;3.57;;;3.27;;
4915;SDS011;70796;52.406;13.230;2023-07-24T10:27:14;5.10;;;3.30;;
4915;SDS011;70796;52.406;13.230;2023-07-24T10:29:40;4.87;;;3.33;;
4915;SDS011;70796;52.406;13.230;2023-07-24T10:32:18;7.80;;;2.90;;
4915;SDS011;70796;52.406;13.230;2023-07-24T10:34:45;3.87;;;3.37;;
4915;SDS011;70796;52.406;13.230;2023-07-24T10:37:11;4.13;;;3.40;;
4915;SDS011;70796;52.406;13.230;2023-07-24T10:39:40;7.40;;;3.80;;
4915;SDS011;70796;52.406;13.230;2023-07-24T10:42:10;3.53;;;3.20;;
4915;SDS011;70796;52.406;13.230;2023-07-24T10:44:37;4.90;;;3.70;;
4915;SDS011;70796;52.406;13.230;2023-07-24T10:47:06;3.83;;;3.40;;
4915;SDS011;70796;52.406;13.230;2023-07-24T10:49:33;4.27;;;3.60;;
4915;SDS011;70796;52.406;13.230;2023-07-24T10:52:00;7.57;;;4.10;;
4915;SDS011;70796;52.406;13.230;2023-07-24T10:54:26;7.03;;;3.97;;
4915;SDS011;70796;52.406;13.230;2023-07-24T10:56:59;6.43;;;3.70;;
4915;SDS011;70796;52.406;13.230;2023-07-24T10:59:38;4.80;;;3.60;;
4915;SDS011;70796;52.406;13.230;2023-07-24T11:02:04;6.07;;;4.00;;
4915;SDS011;70796;52.406;13.230;2023-07-24T11:04:31;8.27;;;4.00;;
4915;SDS011;70796;52.406;13.230;2023-07-24T11:06:58;5.77;;;3.73;;
4915;SDS011;70796;52.406;13.230;2023-07-24T11:09:35;4.63;;;3.60;;
4915;SDS011;70796;52.406;13.230;2023-07-24T11:12:15;6.23;;;4.00;;
4915;SDS011;70796;52.406;13.230;2023-07-24T11:15:00;7.37;;;4.27;;
4915;SDS011;70796;52.406;13.230;2023-07-24T11:17:34;9.53;;;4.03;;
4915;SDS011;70796;52.406;13.230;2023-07-24T11:20:10;6.33;;;3.77;;
4915;SDS011;70796;52.406;13.230;2023-07-24T11:22:40;4.73;;;3.80;;
4915;SDS011;70796;52.406;13.230;2023-07-24T11:25:07;7.20;;;3.90;;
4915;SDS011;70796;52.406;13.230;2023-07-24T11:27:38;5.13;;;3.70;;
4915;SDS011;70796;52.406;13.230;2023-07-24T11:30:05;4.13;;;3.73;;
4915;SDS011;70796;52.406;13.230;2023-07-24T11:32:31;4.67;;;4.00;;
4915;SDS011;70796;52.406;13.230;2023-07-24T11:34:58;5.17;;;4.40;;
4915;SDS011;70796;52.406;13.230;2023-07-24T11:37:24;5.77;;;3.80;;
4915;SDS011;70796;52.406;13.230;2023-07-24T11:40:00;6.97;;;4.27;;
4915;SDS011;70796;52.406;13.230;2023-07-24T11:42:38;5.80;;;4.40;;
4915;SDS011;70796;52.406;13.230;2023-07-24T11:45:06;5.80;;;3.83;;
4915;SDS011;70796;52.406;13.230;2023-07-24T11:50:09;5.53;;;4.37;;
4915;SDS011;70796;52.406;13.230;2023-07-24T11:52:42;5.50;;;4.33;;
4915;SDS011;70796;52.406;13.230;2023-07-24T11:55:13;5.97;;;3.60;;
4915;SDS011;70796;52.406;13.230;2023-07-24T11:57:39;5.47;;;4.60;;
4915;SDS011;70796;52.406;13.230;2023-07-24T12:00:16;5.70;;;4.50;;
4915;SDS011;70796;52.406;13.230;2023-07-24T12:02:44;7.43;;;4.60;;
4915;SDS011;70796;52.406;13.230;2023-07-24T12:05:11;5.73;;;4.10;;
4915;SDS011;70796;52.406;13.230;2023-07-24T12:07:37;10.00;;;4.13;;
4915;SDS011;70796;52.406;13.230;2023-07-24T12:10:05;7.90;;;4.30;;
4915;SDS011;70796;52.406;13.230;2023-07-24T12:12:51;5.27;;;4.33;;
4915;SDS011;70796;52.406;13.230;2023-07-24T12:15:18;8.63;;;5.00;;
4915;SDS011;70796;52.406;13.230;2023-07-24T12:17:46;6.33;;;4.27;;
4915;SDS011;70796;52.406;13.230;2023-07-24T12:20:13;4.90;;;4.00;;
4915;SDS011;70796;52.406;13.230;2023-07-24T12:22:39;9.07;;;4.07;;
4915;SDS011;70796;52.406;13.230;2023-07-24T12:25:07;7.37;;;4.20;;
4915;SDS011;70796;52.406;13.230;2023-07-24T12:27:33;6.70;;;4.10;;
4915;SDS011;70796;52.406;13.230;2023-07-24T12:30:00;9.90;;;4.40;;
4915;SDS011;70796;52.406;13.230;2023-07-24T12:32:27;6.60;;;4.20;;
4915;SDS011;70796;52.406;13.230;2023-07-24T12:34:54;8.10;;;4.00;;
4915;SDS011;70796;52.406;13.230;2023-07-24T12:37:21;7.30;;;4.40;;
4915;SDS011;70796;52.406;13.230;2023-07-24T12:39:48;6.00;;;3.90;;
4915;SDS011;70796;52.406;13.230;2023-07-24T12:42:15;7.07;;;4.33;;
4915;SDS011;70796;52.406;13.230;2023-07-24T12:44:42;5.30;;;3.80;;
4915;SDS011;70796;52.406;13.230;2023-07-24T12:47:09;4.67;;;3.80;;
4915;SDS011;70796;52.406;13.230;2023-07-24T12:49:35;6.20;;;3.90;;
4915;SDS011;70796;52.406;13.230;2023-07-24T12:52:02;4.23;;;3.13;;
4915;SDS011;70796;52.406;13.230;2023-07-24T12:54:28;4.90;;;3.53;;
4915;SDS011;70796;52.406;13.230;2023-07-24T12:57:15;4.27;;;3.07;;
4915;SDS011;70796;52.406;13.230;2023-07-24T12:59:42;3.87;;;3.20;;
4915;SDS011;70796;52.406;13.230;2023-07-24T13:02:08;3.80;;;3.20;;
4915;SDS011;70796;52.406;13.230;2023-07-24T13:04:34;3.90;;;3.17;;
4915;SDS011;70796;52.406;13.230;2023-07-24T13:07:01;4.30;;;3.23;;
4915;SDS011;70796;52.406;13.230;2023-07-24T13:09:28;5.27;;;3.40;;
4915;SDS011;70796;52.406;13.230;2023-07-24T13:11:55;4.00;;;3.00;;
4915;SDS011;70796;52.406;13.230;2023-07-24T13:14:21;3.80;;;3.33;;
4915;SDS011;70796;52.406;13.230;2023-07-24T13:16:49;5.27;;;3.20;;
4915;SDS011;70796;52.406;13.230;2023-07-24T13:19:16;4.40;;;3.50;;
4915;SDS011;70796;52.406;13.230;2023-07-24T13:21:46;4.00;;;3.13;;
4915;SDS011;70796;52.406;13.230;2023-07-24T13:24:13;4.47;;;3.13;;
4915;SDS011;70796;52.406;13.230;2023-07-24T13:26:41;3.40;;;3.10;;
4915;SDS011;70796;52.406;13.230;2023-07-24T13:29:07;7.70;;;3.23;;
4915;SDS011;70796;52.406;13.230;2023-07-24T13:31:33;4.27;;;2.93;;
4915;SDS011;70796;52.406;13.230;2023-07-24T13:34:01;3.77;;;3.07;;
4915;SDS011;70796;52.406;13.230;2023-07-24T13:36:29;6.73;;;3.00;;
4915;SDS011;70796;52.406;13.230;2023-07-24T13:38:57;4.33;;;3.13;;
4915;SDS011;70796;52.406;13.230;2023-07-24T13:41:23;3.87;;;3.43;;
4915;SDS011;70796;52.406;13.230;2023-07-24T13:43:58;3.23;;;2.93;;
4915;SDS011;70796;52.406;13.230;2023-07-24T13:46:24;3.47;;;3.17;;
4915;SDS011;70796;52.406;13.230;2023-07-24T13:48:50;4.43;;;2.97;;
4915;SDS011;70796;52.406;13.230;2023-07-24T13:51:16;4.27;;;2.70;;
4915;SDS011;70796;52.406;13.230;2023-07-24T13:53:43;4.77;;;3.10;;
4915;SDS011;70796;52.406;13.230;2023-07-24T13:56:13;4.30;;;2.93;;
4915;SDS011;70796;52.406;13.230;2023-07-24T13:58:40;5.70;;;3.13;;
4915;SDS011;70796;52.406;13.230;2023-07-24T14:01:06;5.80;;;3.37;;
4915;SDS011;70796;52.406;13.230;2023-07-24T14:03:33;3.37;;;3.03;;
4915;SDS011;70796;52.406;13.230;2023-07-24T14:06:01;4.20;;;3.10;;
4915;SDS011;70796;52.406;13.230;2023-07-24T14:08:27;4.17;;;2.80;;
4915;SDS011;70796;52.406;13.230;2023-07-24T14:10:53;5.67;;;3.37;;
4915;SDS011;70796;52.406;13.230;2023-07-24T14:13:19;4.40;;;3.30;;
4915;SDS011;70796;52.406;13.230;2023-07-24T14:15:47;4.50;;;3.20;;
4915;SDS011;70796;52.406;13.230;2023-07-24T14:18:13;4.43;;;3.70;;
4915;SDS011;70796;52.406;13.230;2023-07-24T14:20:39;3.77;;;3.10;;
4915;SDS011;70796;52.406;13.230;2023-07-24T14:23:08;5.73;;;3.20;;
4915;SDS011;70796;52.406;13.230;2023-07-24T14:25:41;3.07;;;2.73;;
4915;SDS011;70796;52.406;13.230;2023-07-24T14:28:08;3.80;;;2.97;;
4915;SDS011;70796;52.406;13.230;2023-07-24T14:30:35;4.40;;;3.47;;
4915;SDS011;70796;52.406;13.230;2023-07-24T14:33:02;4.43;;;3.23;;
4915;SDS011;70796;52.406;13.230;2023-07-24T14:35:28;4.23;;;3.33;;
4915;SDS011;70796;52.406;13.230;2023-07-24T14:37:54;14.33;;;3.70;;
4915;SDS011;70796;52.406;13.230;2023-07-24T14:40:21;4.43;;;3.77;;
4915;SDS011;70796;52.406;13.230;2023-07-24T14:42:48;5.27;;;3.80;;
4915;SDS011;70796;52.406;13.230;2023-07-24T14:45:14;4.40;;;3.83;;
4915;SDS011;70796;52.406;13.230;2023-07-24T14:47:41;6.53;;;4.00;;
4915;SDS011;70796;52.406;13.230;2023-07-24T14:50:08;4.20;;;3.53;;
4915;SDS011;70796;52.406;13.230;2023-07-24T14:52:34;4.67;;;3.53;;
4915;SDS011;70796;52.406;13.230;2023-07-24T14:55:05;5.07;;;3.97;;
4915;SDS011;70796;52.406;13.230;2023-07-24T14:57:31;6.77;;;4.10;;
4915;SDS011;70796;52.406;13.230;2023-07-24T14:59:57;5.07;;;3.97;;